Time;durP1;ratioP1;P1;durP2;ratioP2;P2;SDS_P1;SDS_P2;PMS_P1;PMS_P2;Temp;Humidity;BMP_temperature;BMP_pressure;BME280_temperature;BME280_humidity;BME280_pressure;Samples;Min_cycle;Max_cycle;Signal;HPM_P1;HPM_P2
2021/04/09 00:00:14;;;;;;;0.68;0.45;;;20.00;42.50;;;;;;7710645;23;20005;-65
2021/04/09 00:03:14;;;;;;;0.40;0.40;;;20.00;42.50;;;;;;7710690;23;20508;-65
2021/04/09 00:06:15;;;;;;;0.32;0.25;;;20.00;42.50;;;;;;7710428;23;20009;-65
2021/04/09 00:09:15;;;;;;;0.47;0.40;;;20.00;42.50;;;;;;7711102;23;20027;-65
2021/04/09 00:12:16;;;;;;;0.43;0.40;;;20.00;42.50;;;;;;7710552;23;20018;-65
2021/04/09 00:15:17;;;;;;;0.60;0.40;;;20.00;42.50;;;;;;7710957;23;20011;-65
2021/04/09 00:18:17;;;;;;;0.70;0.50;;;20.00;42.50;;;;;;7710379;23;20328;-64
2021/04/09 00:21:18;;;;;;;0.93;0.40;;;20.00;42.50;;;;;;7710560;23;20008;-64
2021/04/09 00:24:19;;;;;;;0.40;0.30;;;20.00;42.50;;;;;;7710842;23;20485;-65
2021/04/09 00:27:19;;;;;;;0.40;0.40;;;20.00;42.50;;;;;;7712954;23;20004;-65
2021/04/09 00:30:26;;;;;;;0.50;0.35;;;20.00;42.50;;;;;;7712933;23;20008;-65
2021/04/09 00:33:26;;;;;;;0.40;0.30;;;20.00;42.60;;;;;;7712888;23;20275;-64
2021/04/09 00:36:27;;;;;;;0.40;0.30;;;20.00;42.60;;;;;;7712893;23;20344;-64
2021/04/09 00:39:27;;;;;;;0.52;0.40;;;20.00;42.60;;;;;;7712532;23;20061;-64
2021/04/09 00:42:28;;;;;;;0.80;0.60;;;20.00;42.60;;;;;;7712951;23;20171;-65
2021/04/09 00:45:29;;;;;;;0.73;0.47;;;20.00;42.60;;;;;;7712779;23;20004;-65
2021/04/09 00:48:29;;;;;;;0.73;0.40;;;20.00;42.60;;;;;;7713195;23;20092;-65
2021/04/09 00:51:31;;;;;;;0.60;0.30;;;20.00;42.60;;;;;;7712358;23;20103;-65
2021/04/09 00:54:32;;;;;;;0.40;0.30;;;20.00;42.60;;;;;;7712459;23;20466;-64
2021/04/09 00:57:34;;;;;;;0.57;0.40;;;20.00;42.60;;;;;;7712680;23;20439;-65
2021/04/09 01:00:36;;;;;;;0.63;0.30;;;20.00;42.60;;;;;;7712504;23;20008;-63
2021/04/09 01:03:38;;;;;;;1.27;0.60;;;20.00;42.60;;;;;;7712979;23;20051;-65
2021/04/09 01:06:39;;;;;;;0.77;0.40;;;20.00;42.60;;;;;;7712419;23;20008;-65
2021/04/09 01:09:40;;;;;;;0.73;0.45;;;20.00;42.60;;;;;;7712303;23;20009;-64
2021/04/09 01:12:41;;;;;;;0.40;0.30;;;20.00;42.60;;;;;;7712395;23;20032;-64
2021/04/09 01:15:41;;;;;;;0.22;0.20;;;20.00;42.60;;;;;;7712521;23;20072;-64
2021/04/09 01:19:01;;;;;;;0.30;0.30;;;20.00;42.70;;;;;;7712039;23;20082;-64
2021/04/09 01:22:07;;;;;;;1.75;0.40;;;20.00;42.70;;;;;;7712561;23;20325;-65
2021/04/09 01:25:35;;;;;;;1.00;0.30;;;20.00;42.70;;;;;;7712361;23;20456;-65
2021/04/09 01:28:45;;;;;;;0.55;0.30;;;20.00;42.90;;;;;;7712237;23;20001;-64
2021/04/09 01:32:03;;;;;;;0.52;0.40;;;20.00;42.70;;;;;;7710468;23;20012;-65
2021/04/09 01:35:07;;;;;;;0.55;0.40;;;20.00;42.70;;;;;;7712536;23;20008;-65
2021/04/09 01:38:09;;;;;;;0.55;0.30;;;20.00;42.70;;;;;;7711690;23;20024;-65
2021/04/09 01:41:12;;;;;;;0.30;0.20;;;20.00;42.70;;;;;;7710730;23;20387;-64
2021/04/09 01:44:14;;;;;;;0.77;0.32;;;20.00;42.70;;;;;;7709412;23;20096;-65
2021/04/09 01:47:14;;;;;;;0.95;0.68;;;20.00;42.70;;;;;;7711545;23;20005;-65
2021/04/09 01:50:17;;;;;;;0.30;0.30;;;20.00;42.70;;;;;;7711694;23;20027;-65
2021/04/09 01:53:18;;;;;;;0.75;0.40;;;20.00;42.70;;;;;;7712560;23;20074;-65
2021/04/09 01:56:20;;;;;;;0.38;0.30;;;20.00;42.70;;;;;;7712276;23;20001;-64
2021/04/09 01:59:22;;;;;;;0.40;0.30;;;20.00;42.80;;;;;;7712052;23;20008;-64
2021/04/09 02:02:23;;;;;;;0.52;0.40;;;20.00;42.70;;;;;;7711930;23;20028;-65
2021/04/09 02:05:27;;;;;;;0.70;0.50;;;20.00;42.70;;;;;;7712326;23;20004;-65
2021/04/09 02:08:30;;;;;;;0.40;0.30;;;20.00;42.80;;;;;;7711613;23;20005;-65
2021/04/09 02:11:33;;;;;;;0.40;0.40;;;20.00;42.80;;;;;;7712037;23;20031;-65
2021/04/09 02:14:35;;;;;;;0.70;0.40;;;20.00;42.80;;;;;;7711809;23;20012;-65
2021/04/09 02:17:37;;;;;;;0.77;0.30;;;20.00;42.80;;;;;;7711389;23;20317;-65
2021/04/09 02:20:38;;;;;;;0.52;0.35;;;20.00;42.80;;;;;;7711775;23;20009;-68
2021/04/09 02:23:38;;;;;;;0.68;0.50;;;20.00;42.80;;;;;;7711843;23;20004;-64
2021/04/09 02:26:40;;;;;;;1.08;0.43;;;20.00;42.80;;;;;;7711562;23;20444;-65
2021/04/09 02:29:43;;;;;;;1.50;0.50;;;20.00;42.80;;;;;;7711765;23;20009;-64
2021/04/09 02:32:43;;;;;;;0.40;0.30;;;20.00;42.80;;;;;;7711883;23;20009;-65
2021/04/09 02:35:44;;;;;;;0.57;0.30;;;20.00;42.80;;;;;;7711550;23;20005;-64
2021/04/09 02:38:49;;;;;;;0.40;0.40;;;20.00;42.80;;;;;;7711192;23;20009;-64
2021/04/09 02:41:57;;;;;;;0.40;0.35;;;20.00;42.80;;;;;;7711665;23;20027;-65
2021/04/09 02:44:58;;;;;;;1.30;0.57;;;20.00;42.80;;;;;;7711878;23;20419;-65
2021/04/09 02:48:01;;;;;;;0.70;0.30;;;20.00;42.80;;;;;;7711285;23;20007;-65
2021/04/09 02:51:07;;;;;;;0.52;0.40;;;20.00;42.80;;;;;;7711053;23;20024;-64
2021/04/09 02:54:15;;;;;;;0.68;0.40;;;20.00;43.60;;;;;;7711164;23;20016;-65
2021/04/09 02:57:16;;;;;;;0.40;0.40;;;20.00;42.80;;;;;;7711124;23;20436;-64
2021/04/09 03:00:18;;;;;;;0.95;0.50;;;19.90;42.80;;;;;;7711219;23;20332;-65
2021/04/09 03:03:20;;;;;;;0.43;0.30;;;19.90;42.80;;;;;;7711150;23;20058;-64
2021/04/09 03:06:21;;;;;;;0.52;0.30;;;19.90;42.80;;;;;;7711492;23;20301;-65
2021/04/09 03:09:23;;;;;;;0.60;0.35;;;19.90;42.80;;;;;;7710774;23;20400;-64
2021/04/09 03:12:24;;;;;;;0.52;0.40;;;20.00;42.90;;;;;;7710941;23;20004;-64
2021/04/09 03:15:28;;;;;;;0.35;0.30;;;19.90;42.80;;;;;;7710939;23;20015;-64
2021/04/09 03:18:33;;;;;;;1.15;0.63;;;19.90;42.90;;;;;;7711104;23;20005;-65
2021/04/09 03:21:34;;;;;;;1.40;0.57;;;20.00;42.90;;;;;;7710869;23;20010;-65
2021/04/09 03:24:35;;;;;;;0.60;0.40;;;19.90;42.80;;;;;;7711219;23;20324;-65
2021/04/09 03:27:36;;;;;;;0.40;0.30;;;19.90;42.80;;;;;;7710918;23;20413;-65
2021/04/09 03:30:38;;;;;;;0.22;0.20;;;19.90;42.90;;;;;;7710932;23;20062;-65
2021/04/09 03:33:38;;;;;;;0.40;0.30;;;19.90;42.90;;;;;;7710874;23;20015;-65
2021/04/09 03:36:39;;;;;;;0.85;0.40;;;19.90;42.80;;;;;;7710908;23;20428;-65
2021/04/09 03:39:41;;;;;;;0.70;0.40;;;19.90;42.80;;;;;;7710790;23;20008;-65
2021/04/09 03:42:41;;;;;;;0.47;0.40;;;19.90;42.80;;;;;;7711192;23;20000;-65
2021/04/09 03:45:42;;;;;;;0.47;0.32;;;19.90;42.90;;;;;;7711056;23;20050;-65
2021/04/09 03:48:42;;;;;;;0.10;0.10;;;19.90;42.90;;;;;;7710445;23;20073;-65
2021/04/09 03:51:43;;;;;;;1.15;0.50;;;19.90;42.90;;;;;;7710708;23;20314;-65
2021/04/09 03:54:43;;;;;;;0.43;0.30;;;19.90;42.90;;;;;;7710645;23;20012;-65
2021/04/09 03:57:44;;;;;;;0.50;0.40;;;19.90;42.90;;;;;;7710777;23;20011;-65
2021/04/09 04:00:44;;;;;;;0.50;0.30;;;19.90;42.90;;;;;;7713043;23;20340;-65
2021/04/09 04:03:48;;;;;;;0.57;0.30;;;19.90;42.90;;;;;;7714672;23;20004;-65
2021/04/09 04:06:48;;;;;;;0.80;0.47;;;19.90;42.90;;;;;;7715072;23;20000;-65
2021/04/09 04:09:49;;;;;;;0.70;0.50;;;19.90;42.90;;;;;;7714631;23;20011;-65
2021/04/09 04:12:50;;;;;;;0.77;0.35;;;19.90;42.90;;;;;;7714834;23;20059;-65
2021/04/09 04:15:51;;;;;;;0.65;0.30;;;19.90;42.80;;;;;;7715162;23;20008;-64
2021/04/09 04:18:51;;;;;;;0.50;0.45;;;19.90;42.90;;;;;;7714674;23;20433;-64
2021/04/09 04:21:52;;;;;;;0.30;0.30;;;19.90;42.80;;;;;;7714930;23;20000;-65
2021/04/09 04:24:53;;;;;;;0.65;0.43;;;20.00;42.70;;;;;;7715011;23;20324;-65
2021/04/09 04:27:54;;;;;;;1.13;0.30;;;20.00;42.70;;;;;;7713114;23;20000;-65
2021/04/09 04:30:55;;;;;;;1.08;0.35;;;20.00;42.60;;;;;;7714573;23;20083;-65
2021/04/09 04:33:56;;;;;;;0.45;0.35;;;20.00;42.60;;;;;;7714602;23;20013;-65
2021/04/09 04:36:56;;;;;;;1.38;0.43;;;20.00;42.60;;;;;;7714790;23;20319;-65
2021/04/09 04:39:57;;;;;;;0.40;0.40;;;20.00;42.60;;;;;;7714704;23;20380;-65
2021/04/09 04:42:57;;;;;;;0.82;0.30;;;20.00;42.60;;;;;;7714936;23;20000;-65
2021/04/09 04:45:58;;;;;;;1.42;0.40;;;20.00;42.50;;;;;;7714754;23;20001;-65
2021/04/09 04:48:58;;;;;;;0.88;0.60;;;20.00;42.50;;;;;;7714421;23;20302;-65
2021/04/09 04:51:59;;;;;;;0.40;0.35;;;20.00;42.60;;;;;;7714593;23;20011;-65
2021/04/09 04:54:59;;;;;;;0.22;0.22;;;20.00;42.60;;;;;;7714570;23;20008;-65
2021/04/09 04:58:00;;;;;;;1.60;0.50;;;20.00;42.50;;;;;;7714653;23;20034;-65
2021/04/09 05:01:01;;;;;;;0.20;0.20;;;20.00;42.50;;;;;;7714713;23;20104;-65
2021/04/09 05:04:01;;;;;;;0.47;0.40;;;20.00;42.70;;;;;;7714474;23;20066;-65
2021/04/09 05:07:02;;;;;;;1.40;0.32;;;20.00;42.70;;;;;;7714967;23;20007;-65
2021/04/09 05:10:05;;;;;;;0.50;0.40;;;20.00;42.60;;;;;;7707043;23;20013;-64
2021/04/09 05:13:05;;;;;;;0.40;0.32;;;20.00;42.70;;;;;;7706703;23;20023;-65
2021/04/09 05:16:06;;;;;;;2.25;0.40;;;20.00;42.70;;;;;;7709822;23;20332;-65
2021/04/09 05:19:07;;;;;;;1.05;0.60;;;20.00;42.60;;;;;;7710603;23;20017;-65
2021/04/09 05:22:08;;;;;;;4.20;0.75;;;20.00;42.30;;;;;;7707289;23;20004;-65
2021/04/09 05:25:09;;;;;;;4.65;0.60;;;20.00;41.90;;;;;;7709391;23;20505;-65
2021/04/09 05:28:09;;;;;;;1.13;0.65;;;20.00;42.00;;;;;;7710387;23;20012;-65
2021/04/09 05:31:10;;;;;;;4.00;0.60;;;20.10;42.50;;;;;;7710806;23;20008;-64
2021/04/09 05:34:10;;;;;;;4.43;0.70;;;20.10;42.70;;;;;;7709871;23;20016;-65
2021/04/09 05:37:11;;;;;;;2.22;0.60;;;20.10;42.60;;;;;;7709212;23;20000;-65
2021/04/09 05:40:12;;;;;;;9.70;0.75;;;20.10;42.30;;;;;;7709810;23;20047;-65
2021/04/09 05:43:13;;;;;;;1.17;0.68;;;20.20;42.30;;;;;;7709675;23;20036;-65
2021/04/09 05:46:15;;;;;;;1.92;0.65;;;20.20;42.30;;;;;;7710344;23;20087;-65
2021/04/09 05:49:15;;;;;;;5.30;0.80;;;20.20;42.20;;;;;;7710125;23;20012;-65
2021/04/09 05:52:16;;;;;;;1.45;0.52;;;20.20;42.10;;;;;;7708142;23;20395;-65
2021/04/09 05:55:16;;;;;;;1.50;0.55;;;20.20;42.20;;;;;;7709781;23;20309;-65
2021/04/09 05:58:18;;;;;;;1.33;0.65;;;20.30;42.50;;;;;;7711509;23;20004;-65
2021/04/09 06:01:18;;;;;;;1.23;0.57;;;20.30;42.40;;;;;;7712470;23;20071;-65
2021/04/09 06:04:19;;;;;;;2.08;0.55;;;20.30;42.40;;;;;;7713526;23;20071;-65
2021/04/09 06:07:19;;;;;;;2.35;0.52;;;20.30;42.20;;;;;;7713492;23;20324;-65
2021/04/09 06:10:20;;;;;;;3.83;0.85;;;20.30;42.20;;;;;;7712867;23;20016;-65
2021/04/09 06:13:20;;;;;;;1.42;0.60;;;20.20;42.10;;;;;;7713188;23;20012;-65
2021/04/09 06:16:21;;;;;;;3.05;0.50;;;20.20;42.20;;;;;;7712787;23;20009;-65
2021/04/09 06:19:21;;;;;;;1.77;0.57;;;20.30;42.30;;;;;;7713148;23;20032;-65
2021/04/09 06:22:22;;;;;;;1.58;0.63;;;20.30;42.10;;;;;;7713202;23;19996;-65
2021/04/09 06:25:24;;;;;;;1.73;0.57;;;20.30;42.20;;;;;;7713180;23;20004;-64
2021/04/09 06:28:24;;;;;;;1.45;0.40;;;20.30;42.20;;;;;;7713217;23;20001;-65
2021/04/09 06:31:25;;;;;;;1.20;0.60;;;20.30;42.20;;;;;;7712983;23;20010;-65
2021/04/09 06:34:26;;;;;;;0.80;0.55;;;20.30;42.10;;;;;;7713274;23;20091;-65
2021/04/09 06:37:26;;;;;;;1.70;0.50;;;20.30;42.20;;;;;;7712899;23;20027;-65
2021/04/09 06:40:27;;;;;;;0.65;0.30;;;20.30;42.20;;;;;;7713417;23;20071;-65
2021/04/09 06:43:28;;;;;;;0.75;0.40;;;20.30;42.20;;;;;;7713015;23;20001;-65
2021/04/09 06:46:28;;;;;;;2.38;0.60;;;20.30;42.10;;;;;;7712885;23;20075;-65
2021/04/09 06:49:29;;;;;;;1.20;0.50;;;20.40;42.30;;;;;;7713156;23;20031;-65
2021/04/09 06:52:30;;;;;;;1.13;0.60;;;20.30;42.10;;;;;;7712637;23;20047;-65
2021/04/09 06:55:31;;;;;;;1.60;0.60;;;20.40;42.20;;;;;;7712659;23;20016;-65
2021/04/09 06:58:33;;;;;;;1.60;0.63;;;20.40;42.20;;;;;;7713081;23;20027;-65
2021/04/09 07:01:37;;;;;;;1.08;0.50;;;20.40;42.20;;;;;;7712846;23;20054;-65
2021/04/09 07:04:38;;;;;;;2.88;0.50;;;20.40;42.10;;;;;;7712463;23;20008;-65
2021/04/09 07:07:38;;;;;;;0.68;0.57;;;20.40;42.10;;;;;;7711560;23;20447;-65
2021/04/09 07:10:39;;;;;;;1.27;0.73;;;20.40;42.00;;;;;;7712322;23;20459;-64
2021/04/09 07:13:49;;;;;;;3.60;1.10;;;20.40;41.90;;;;;;7712417;23;20012;-64
2021/04/09 07:16:58;;;;;;;6.95;1.70;;;20.40;41.40;;;;;;7712360;23;20012;-65
2021/04/09 07:20:18;;;;;;;2.70;0.90;;;20.40;41.10;;;;;;7712667;23;20011;-68
2021/04/09 07:23:18;;;;;;;9.95;1.10;;;20.40;41.00;;;;;;7711509;23;20484;-65
2021/04/09 07:26:41;;;;;;;4.13;1.10;;;20.40;40.90;;;;;;7712153;23;20011;-65
2021/04/09 07:29:44;;;;;;;2.00;0.90;;;20.40;40.90;;;;;;7711966;23;20432;-67
2021/04/09 07:32:45;;;;;;;2.88;0.95;;;20.40;41.00;;;;;;7712060;23;20017;-66
2021/04/09 07:36:00;;;;;;;4.38;1.13;;;20.40;41.00;;;;;;7711963;23;20004;-66
2021/04/09 07:39:01;;;;;;;1.25;0.70;;;20.40;41.00;;;;;;7712057;23;20008;-64
2021/04/09 07:42:13;;;;;;;3.78;1.10;;;20.40;41.10;;;;;;7711920;23;20027;-65
2021/04/09 07:45:15;;;;;;;4.32;1.23;;;20.40;41.10;;;;;;7712324;23;20425;-67
2021/04/09 07:48:18;;;;;;;2.42;1.00;;;20.40;41.20;;;;;;7712202;23;20005;-68
2021/04/09 07:51:20;;;;;;;3.08;1.10;;;20.40;41.10;;;;;;7712275;23;20071;-67
2021/04/09 07:54:25;;;;;;;2.38;1.20;;;20.40;41.30;;;;;;7712050;23;20012;-66
2021/04/09 07:57:29;;;;;;;1.67;0.70;;;20.40;41.20;;;;;;7711784;23;20057;-67
2021/04/09 08:00:29;;;;;;;1.42;0.82;;;20.40;41.40;;;;;;7712128;23;20000;-66
2021/04/09 08:03:32;;;;;;;1.50;0.70;;;20.40;41.30;;;;;;7711802;23;20099;-65
2021/04/09 08:06:36;;;;;;;3.00;1.02;;;20.40;41.40;;;;;;7712590;23;20300;-66
2021/04/09 08:09:50;;;;;;;1.85;0.90;;;20.40;41.40;;;;;;7711533;23;20005;-65
2021/04/09 08:12:52;;;;;;;0.93;0.60;;;20.40;41.40;;;;;;7711614;23;20017;-68
2021/04/09 08:15:52;;;;;;;2.25;0.70;;;20.40;41.40;;;;;;7711839;23;20012;-65
2021/04/09 08:19:08;;;;;;;2.05;0.90;;;20.40;41.40;;;;;;7709802;23;20332;-65
2021/04/09 08:22:09;;;;;;;2.08;0.70;;;20.40;41.40;;;;;;7712638;23;20000;-65
2021/04/09 08:25:10;;;;;;;0.90;0.55;;;20.40;41.40;;;;;;7712220;23;20085;-65
2021/04/09 08:28:12;;;;;;;1.48;0.68;;;20.40;41.50;;;;;;7711164;23;20013;-65
2021/04/09 08:31:13;;;;;;;1.70;0.80;;;20.40;41.50;;;;;;7711999;23;20336;-65
2021/04/09 08:34:21;;;;;;;0.73;0.68;;;20.40;41.40;;;;;;7711590;23;20012;-65
2021/04/09 08:37:22;;;;;;;1.95;0.93;;;20.40;41.60;;;;;;7711446;23;20011;-67
2021/04/09 08:40:23;;;;;;;1.42;0.70;;;20.40;41.50;;;;;;7711925;23;20004;-67
2021/04/09 08:43:25;;;;;;;1.00;0.50;;;20.40;41.50;;;;;;7712400;23;20012;-67
2021/04/09 08:46:25;;;;;;;0.68;0.43;;;20.40;41.50;;;;;;7712641;23;20008;-67
2021/04/09 08:49:28;;;;;;;2.38;0.85;;;20.40;41.50;;;;;;7713595;23;20028;-65
2021/04/09 08:52:29;;;;;;;1.33;0.60;;;20.40;41.50;;;;;;7714148;23;20004;-65
2021/04/09 08:55:39;;;;;;;1.65;0.73;;;20.40;41.60;;;;;;7713567;23;20012;-65
2021/04/09 08:58:47;;;;;;;2.42;0.85;;;20.40;41.50;;;;;;7713169;23;20423;-67
2021/04/09 09:02:27;;;;;;;1.02;0.60;;;20.40;41.50;;;;;;7713493;23;20004;-67
2021/04/09 09:05:33;;;;;;;1.60;0.57;;;20.40;41.50;;;;;;7713460;23;20116;-67
2021/04/09 09:08:43;;;;;;;1.42;0.73;;;20.40;41.50;;;;;;7713765;23;20004;-67
2021/04/09 09:11:52;;;;;;;2.03;0.60;;;20.40;41.50;;;;;;7713911;23;20008;-67
2021/04/09 09:14:53;;;;;;;0.82;0.57;;;20.40;41.70;;;;;;7713570;23;20008;-67
2021/04/09 09:17:53;;;;;;;1.30;0.70;;;20.40;41.70;;;;;;7703620;23;20066;-67
2021/04/09 09:21:09;;;;;;;0.80;0.40;;;20.40;41.60;;;;;;7711202;23;20012;-67
2021/04/09 09:24:22;;;;;;;4.70;0.80;;;20.40;41.60;;;;;;7710592;23;20062;-67
2021/04/09 09:27:50;;;;;;;11.13;1.10;;;20.40;42.10;;;;;;7710475;23;20005;-66
2021/04/09 09:30:55;;;;;;;11.82;1.08;;;20.40;42.20;;;;;;7711200;23;20063;-67
2021/04/09 09:34:15;;;;;;;;;;;20.50;42.40;;;;;;7711233;23;20019;-66
2021/04/09 09:37:19;;;;;;;38.63;3.45;;;20.60;42.50;;;;;;7710154;23;20232;-67
2021/04/09 09:40:39;;;;;;;42.63;2.60;;;20.60;42.30;;;;;;7709163;23;20001;-66
2021/04/09 09:43:41;;;;;;;27.33;2.28;;;20.50;42.10;;;;;;7708337;23;20443;-67
2021/04/09 09:47:11;;;;;;;8.13;2.38;;;20.50;42.00;;;;;;7709743;23;20007;-67
2021/04/09 09:50:15;;;;;;;14.48;2.67;;;20.50;42.00;;;;;;7693556;23;20338;-67
2021/04/09 09:53:15;;;;;;;8.50;1.95;;;20.50;42.00;;;;;;7710108;23;20020;-67
2021/04/09 09:56:27;;;;;;;15.98;2.60;;;20.50;42.10;;;;;;7710303;23;20058;-67
2021/04/09 09:59:28;;;;;;;16.90;3.88;;;20.40;41.90;;;;;;7709899;23;20028;-66
2021/04/09 10:02:29;;;;;;;22.38;4.93;;;20.50;42.00;;;;;;7710687;23;20001;-65
2021/04/09 10:05:29;;;;;;;14.93;4.15;;;20.40;41.90;;;;;;7709142;23;20004;-67
2021/04/09 10:08:33;;;;;;;22.23;4.93;;;20.50;42.00;;;;;;7709574;23;20078;-66
2021/04/09 10:11:34;;;;;;;12.80;4.00;;;20.50;42.00;;;;;;7710247;23;20001;-66
2021/04/09 10:14:43;;;;;;;19.08;4.35;;;20.50;41.90;;;;;;7710537;23;20023;-67
2021/04/09 10:18:06;;;;;;;14.27;3.85;;;20.50;42.00;;;;;;7709493;23;20484;-66
2021/04/09 10:21:14;;;;;;;14.20;3.90;;;20.50;41.80;;;;;;7710188;23;20008;-67
2021/04/09 10:24:17;;;;;;;10.95;3.58;;;20.50;41.80;;;;;;7710321;23;20401;-65
2021/04/09 10:27:17;;;;;;;23.92;4.65;;;20.50;42.10;;;;;;7709307;23;20005;-63
2021/04/09 10:30:31;;;;;;;54.60;6.38;;;20.50;42.00;;;;;;7709148;23;20397;-65
2021/04/09 10:33:43;;;;;;;22.90;6.13;;;20.50;42.10;;;;;;7711335;23;20013;-65
2021/04/09 10:36:45;;;;;;;24.42;4.78;;;20.50;41.90;;;;;;7711240;23;20001;-66
2021/04/09 10:39:46;;;;;;;29.02;4.40;;;20.40;41.00;;;;;;7710064;23;20424;-66
2021/04/09 10:43:00;;;;;;;16.48;4.15;;;20.50;41.10;;;;;;7710479;23;20008;-66
2021/04/09 10:46:14;;;;;;;28.48;4.32;;;20.40;40.80;;;;;;7711133;23;20084;-66
2021/04/09 10:49:19;;;;;;;19.17;4.43;;;20.50;41.10;;;;;;7710859;23;20464;-67
2021/04/09 10:52:20;;;;;;;;;;;20.50;41.20;;;;;;7712130;23;20355;-65
2021/04/09 10:55:30;;;;;;;15.95;3.60;;;20.40;41.20;;;;;;7710303;23;19900;-66
2021/04/09 10:58:31;;;;;;;14.40;3.65;;;20.40;41.40;;;;;;7711056;23;20001;-66
2021/04/09 11:01:32;;;;;;;18.20;3.17;;;20.50;42.00;;;;;;7711384;23;20012;-66
2021/04/09 11:04:34;;;;;;;15.98;3.60;;;20.50;41.90;;;;;;7711407;23;20008;-66
2021/04/09 11:07:48;;;;;;;7.88;3.00;;;20.50;42.00;;;;;;7707515;23;20005;-66
2021/04/09 11:10:59;;;;;;;13.20;2.92;;;20.50;42.30;;;;;;7709544;23;20440;-66
2021/04/09 11:14:05;;;;;;;16.92;3.28;;;20.50;42.30;;;;;;7710667;23;20348;-66
2021/04/09 11:17:06;;;;;;;12.75;2.60;;;20.50;42.30;;;;;;7710397;23;20475;-66
2021/04/09 11:20:32;;;;;;;6.60;2.70;;;20.50;42.40;;;;;;7710191;23;20009;-66
2021/04/09 11:23:40;;;;;;;11.13;2.70;;;20.40;42.40;;;;;;7711507;23;20005;-66
2021/04/09 11:26:41;;;;;;;12.38;3.33;;;20.40;42.50;;;;;;7711018;23;20021;-66
2021/04/09 11:29:42;;;;;;;13.93;3.22;;;20.40;42.40;;;;;;7710730;23;20024;-66
2021/04/09 11:32:48;;;;;;;11.45;2.65;;;20.40;41.30;;;;;;7710067;23;20080;-66
2021/04/09 11:35:48;;;;;;;20.30;2.83;;;20.40;42.20;;;;;;7710249;23;20005;-66
2021/04/09 11:39:09;;;;;;;7.32;2.30;;;20.40;42.30;;;;;;7710481;23;20086;-66
2021/04/09 11:42:12;;;;;;;5.75;1.98;;;20.40;42.40;;;;;;7709170;23;20338;-66
2021/04/09 11:45:14;;;;;;;9.48;3.05;;;20.40;42.50;;;;;;7710732;23;20005;-66
2021/04/09 11:48:24;;;;;;;7.93;2.05;;;20.40;42.60;;;;;;7710427;23;20152;-66
2021/04/09 11:51:24;;;;;;;8.82;2.63;;;20.40;42.60;;;;;;7710716;23;20043;-66
2021/04/09 11:54:36;;;;;;;6.32;2.30;;;20.40;42.70;;;;;;7711045;23;20084;-65
2021/04/09 11:57:36;;;;;;;14.32;2.85;;;20.40;42.70;;;;;;7710219;23;20084;-66
2021/04/09 12:00:37;;;;;;;12.18;2.58;;;20.40;42.70;;;;;;7711206;23;20008;-66
2021/04/09 12:03:43;;;;;;;5.93;2.13;;;20.40;42.80;;;;;;7710340;23;20000;-65
2021/04/09 12:06:43;;;;;;;8.90;2.22;;;20.40;42.80;;;;;;7710327;23;20008;-66
2021/04/09 12:09:48;;;;;;;6.82;1.98;;;20.40;42.80;;;;;;7710109;23;20055;-66
2021/04/09 12:12:50;;;;;;;;;;;20.40;42.90;;;;;;7710931;23;20008;-66
2021/04/09 12:15:50;;;;;;;11.32;2.63;;;20.40;42.90;;;;;;7710468;23;19900;-66
2021/04/09 12:18:51;;;;;;;9.20;2.28;;;20.30;42.80;;;;;;7709907;23;20012;-66
2021/04/09 12:21:52;;;;;;;11.15;2.10;;;20.40;42.90;;;;;;7710655;23;20062;-66
2021/04/09 12:24:54;;;;;;;8.25;2.03;;;20.40;42.90;;;;;;7713823;23;20000;-66
2021/04/09 12:27:54;;;;;;;9.75;1.88;;;20.40;43.00;;;;;;7712841;23;20420;-64
2021/04/09 12:30:55;;;;;;;7.13;2.20;;;20.40;43.00;;;;;;7713037;23;20004;-64
2021/04/09 12:33:55;;;;;;;11.18;2.10;;;20.30;43.00;;;;;;7710219;23;20016;-64
2021/04/09 12:36:56;;;;;;;11.35;2.10;;;20.40;43.00;;;;;;7712677;23;20296;-64
2021/04/09 12:39:57;;;;;;;19.25;2.40;;;20.40;43.00;;;;;;7711685;23;20063;-64
2021/04/09 12:42:58;;;;;;;18.40;2.42;;;20.40;43.00;;;;;;7712217;23;20147;-63
2021/04/09 12:45:59;;;;;;;18.80;2.60;;;20.40;43.00;;;;;;7712006;23;20035;-63
2021/04/09 12:49:00;;;;;;;16.52;2.72;;;20.40;43.10;;;;;;7712009;23;20095;-64
2021/04/09 12:52:00;;;;;;;12.05;2.15;;;20.40;43.00;;;;;;7711218;23;20016;-64
2021/04/09 12:55:01;;;;;;;13.68;2.50;;;20.40;43.00;;;;;;7711678;23;20062;-64
2021/04/09 12:58:01;;;;;;;11.65;2.30;;;20.40;43.00;;;;;;7711651;23;20420;-64
2021/04/09 13:01:02;;;;;;;18.60;2.17;;;20.40;43.00;;;;;;7712822;23;20011;-64
2021/04/09 13:04:02;;;;;;;20.70;2.42;;;20.40;43.00;;;;;;7712632;23;20076;-64
2021/04/09 13:07:03;;;;;;;9.10;2.33;;;20.40;43.10;;;;;;7710996;23;20042;-63
2021/04/09 13:10:04;;;;;;;21.83;2.55;;;20.40;43.10;;;;;;7712152;23;20004;-64
2021/04/09 13:13:05;;;;;;;10.32;1.95;;;20.40;43.10;;;;;;7711481;23;20107;-64
2021/04/09 13:16:06;;;;;;;7.45;1.67;;;20.40;43.20;;;;;;7712624;23;20008;-66
2021/04/09 13:19:06;;;;;;;5.15;1.83;;;20.40;43.30;;;;;;7712070;23;20000;-66
2021/04/09 13:22:08;;;;;;;8.65;2.13;;;20.50;43.40;;;;;;7711631;23;20015;-66
2021/04/09 13:25:09;;;;;;;8.55;1.67;;;20.40;43.30;;;;;;7709524;23;20328;-66
2021/04/09 13:28:10;;;;;;;11.52;1.73;;;20.50;43.40;;;;;;7708680;23;20059;-66
2021/04/09 13:31:12;;;;;;;6.57;2.00;;;20.50;43.60;;;;;;7710713;23;20000;-66
2021/04/09 13:34:13;;;;;;;13.60;2.20;;;20.50;43.40;;;;;;7710403;23;20497;-65
2021/04/09 13:37:13;;;;;;;4.25;1.27;;;20.40;43.40;;;;;;7711905;23;20004;-66
2021/04/09 13:40:15;;;;;;;5.22;1.70;;;20.50;43.50;;;;;;7711119;23;20333;-66
2021/04/09 13:43:16;;;;;;;6.90;1.83;;;20.50;43.40;;;;;;7710159;23;20572;-66
2021/04/09 13:46:17;;;;;;;5.25;1.52;;;20.50;43.40;;;;;;7709897;23;20009;-66
2021/04/09 13:49:18;;;;;;;5.45;1.65;;;20.50;43.30;;;;;;7711534;23;20017;-64
2021/04/09 13:52:18;;;;;;;4.57;1.50;;;20.50;43.30;;;;;;7712024;23;20094;-64
2021/04/09 13:55:19;;;;;;;6.88;1.65;;;20.50;43.20;;;;;;7711830;23;20009;-64
2021/04/09 13:58:19;;;;;;;5.38;1.73;;;20.50;43.20;;;;;;7709342;23;20008;-64
2021/04/09 14:01:20;;;;;;;10.27;1.70;;;20.50;43.20;;;;;;7712187;23;20005;-64
2021/04/09 14:04:23;;;;;;;3.25;1.30;;;20.50;43.10;;;;;;7711197;23;20004;-64
2021/04/09 14:07:24;;;;;;;9.30;1.33;;;20.50;43.10;;;;;;7710978;23;20005;-64
2021/04/09 14:10:25;;;;;;;7.30;1.27;;;20.50;43.20;;;;;;7711099;23;20027;-64
2021/04/09 14:13:26;;;;;;;5.80;1.60;;;20.50;43.10;;;;;;7711558;23;20048;-64
2021/04/09 14:16:27;;;;;;;5.18;1.40;;;20.50;43.20;;;;;;7711197;23;20455;-64
2021/04/09 14:19:27;;;;;;;4.53;1.42;;;20.50;43.20;;;;;;7711753;23;20050;-64
2021/04/09 14:22:29;;;;;;;2.70;1.30;;;20.50;43.10;;;;;;7711967;23;20001;-64
2021/04/09 14:25:30;;;;;;;3.20;1.63;;;20.50;43.10;;;;;;7710519;23;20007;-64
2021/04/09 14:28:30;;;;;;;2.53;1.30;;;20.50;43.10;;;;;;7711762;23;20008;-64
2021/04/09 14:31:31;;;;;;;3.88;1.50;;;20.50;43.20;;;;;;7711577;23;20080;-64
2021/04/09 14:34:31;;;;;;;5.05;1.42;;;20.50;43.10;;;;;;7710854;23;20023;-64
2021/04/09 14:37:34;;;;;;;4.82;1.10;;;20.50;43.10;;;;;;7710643;23;20004;-64
2021/04/09 14:40:34;;;;;;;4.07;1.23;;;20.50;43.10;;;;;;7711615;23;20058;-64
2021/04/09 14:43:35;;;;;;;2.80;1.05;;;20.50;43.20;;;;;;7711522;23;20000;-64
2021/04/09 14:46:36;;;;;;;3.15;1.23;;;20.50;43.10;;;;;;7711128;23;20386;-64
2021/04/09 14:49:37;;;;;;;3.50;1.02;;;20.50;43.10;;;;;;7709930;23;20360;-64
2021/04/09 14:52:38;;;;;;;4.85;1.25;;;20.50;43.20;;;;;;7711517;23;20023;-65
2021/04/09 14:55:39;;;;;;;2.38;1.15;;;20.50;43.30;;;;;;7711279;23;20005;-63
2021/04/09 14:58:39;;;;;;;4.15;1.25;;;20.50;43.30;;;;;;7710684;23;20012;-64
2021/04/09 15:01:40;;;;;;;4.78;1.25;;;20.50;43.30;;;;;;7710815;23;20031;-64
2021/04/09 15:04:40;;;;;;;2.15;1.30;;;20.50;43.40;;;;;;7711154;23;20008;-64
2021/04/09 15:07:41;;;;;;;4.30;1.27;;;20.50;43.50;;;;;;7711345;23;20015;-64
2021/04/09 15:10:42;;;;;;;2.10;1.10;;;20.50;43.60;;;;;;7711378;23;20051;-64
2021/04/09 15:13:42;;;;;;;2.67;1.25;;;20.50;43.60;;;;;;7710251;23;20106;-64
2021/04/09 15:16:43;;;;;;;2.05;0.90;;;20.50;43.70;;;;;;7711070;23;20007;-64
2021/04/09 15:19:43;;;;;;;2.70;1.10;;;20.50;43.70;;;;;;7711311;23;20016;-64
2021/04/09 15:22:44;;;;;;;1.85;0.85;;;20.50;43.60;;;;;;7711675;23;20001;-64
2021/04/09 15:25:45;;;;;;;2.00;0.90;;;20.60;43.80;;;;;;7710397;23;20001;-64
2021/04/09 15:28:45;;;;;;;3.95;1.15;;;20.60;43.70;;;;;;7711058;23;20005;-64
2021/04/09 15:31:46;;;;;;;2.58;1.02;;;20.60;43.70;;;;;;7711028;23;20047;-65
2021/04/09 15:34:46;;;;;;;1.77;1.17;;;20.50;43.60;;;;;;7711234;23;20043;-65
2021/04/09 15:37:47;;;;;;;2.75;1.10;;;20.50;43.60;;;;;;7709699;23;20009;-64
2021/04/09 15:40:48;;;;;;;4.20;1.02;;;20.60;43.60;;;;;;7711179;23;20332;-65
2021/04/09 15:43:49;;;;;;;2.67;1.00;;;20.50;43.60;;;;;;7712052;23;20515;-65
2021/04/09 15:46:49;;;;;;;2.63;0.93;;;20.60;43.70;;;;;;7710512;23;20004;-65
2021/04/09 15:49:50;;;;;;;2.88;0.70;;;20.50;43.70;;;;;;7710078;23;20022;-64